Time;durP1;ratioP1;P1;durP2;ratioP2;P2;SDS_P1;SDS_P2;PMS_P1;PMS_P2;Temp;Humidity;BMP_temperature;BMP_pressure;BME280_temperature;BME280_humidity;BME280_pressure;Samples;Min_cycle;Max_cycle;Signal;HPM_P1;HPM_P2
2022/03/14 00:00:30;;;;;;;7.90;5.30;;;;;;;;;;5072688;28;20602;-48
2022/03/14 00:02:59;;;;;;;9.43;6.77;;;;;;;;;;5072381;28;20444;-48
2022/03/14 00:05:31;;;;;;;7.07;5.30;;;;;;;;;;5071932;28;20689;-49
2022/03/14 00:07:59;;;;;;;8.40;6.13;;;;;;;;;;5072445;28;20430;-49
2022/03/14 00:10:25;;;;;;;7.70;6.30;;;;;;;;;;5072264;28;20452;-49
2022/03/14 00:12:56;;;;;;;9.03;5.63;;;;;;;;;;5072250;28;20434;-49
2022/03/14 00:15:22;;;;;;;9.17;5.50;;;;;;;;;;5071958;28;20817;-50
2022/03/14 00:17:49;;;;;;;7.37;6.10;;;;;;;;;;5071982;28;20487;-49
2022/03/14 00:20:15;;;;;;;6.63;5.77;;;;;;;;;;5071928;28;20833;-50
2022/03/14 00:22:42;;;;;;;7.87;5.80;;;;;;;;;;5072251;28;20830;-49
2022/03/14 00:25:10;;;;;;;8.07;6.00;;;;;;;;;;5071837;28;21042;-49
2022/03/14 00:27:36;;;;;;;7.93;5.73;;;;;;;;;;5071848;28;20529;-49
2022/03/14 00:30:04;;;;;;;10.20;5.93;;;;;;;;;;5071781;28;20453;-49
2022/03/14 00:32:30;;;;;;;8.03;5.70;;;;;;;;;;5071683;28;20465;-49
2022/03/14 00:34:56;;;;;;;7.20;6.30;;;;;;;;;;5071780;28;20477;-49
2022/03/14 00:37:23;;;;;;;7.27;5.87;;;;;;;;;;5071520;28;20869;-49
2022/03/14 00:39:50;;;;;;;9.00;6.50;;;;;;;;;;5071637;28;20446;-49
2022/03/14 00:42:20;;;;;;;8.80;6.50;;;;;;;;;;5071638;28;20518;-49
2022/03/14 00:44:46;;;;;;;6.83;6.03;;;;;;;;;;5071681;28;20517;-49
2022/03/14 00:47:12;;;;;;;8.60;5.87;;;;;;;;;;5071569;28;20484;-50
2022/03/14 00:49:39;;;;;;;7.77;6.33;;;;;;;;;;5071317;28;20880;-49
2022/03/14 00:52:05;;;;;;;7.60;6.27;;;;;;;;;;5069767;28;20437;-50
2022/03/14 00:54:31;;;;;;;7.63;6.10;;;;;;;;;;5071640;28;20491;-50
2022/03/14 00:56:57;;;;;;;10.00;6.13;;;;;;;;;;5071471;28;20936;-52
2022/03/14 00:59:24;;;;;;;9.30;6.70;;;;;;;;;;5071430;28;20199;-50
2022/03/14 01:01:51;;;;;;;6.90;6.03;;;;;;;;;;5071588;28;20450;-50
2022/03/14 01:04:17;;;;;;;10.50;6.60;;;;;;;;;;5071457;28;20467;-50
2022/03/14 01:06:43;;;;;;;10.27;7.10;;;;;;;;;;5071526;28;20434;-50
2022/03/14 01:09:11;;;;;;;7.33;6.57;;;;;;;;;;5071227;28;20200;-50
2022/03/14 01:11:37;;;;;;;8.77;6.40;;;;;;;;;;5071879;28;20354;-50
2022/03/14 01:14:03;;;;;;;10.43;6.93;;;;;;;;;;5071263;28;20473;-49
2022/03/14 01:16:31;;;;;;;10.80;6.90;;;;;;;;;;5071550;28;20541;-50
2022/03/14 01:18:58;;;;;;;9.43;6.73;;;;;;;;;;5070900;28;20524;-50
2022/03/14 01:21:24;;;;;;;8.43;6.73;;;;;;;;;;5071059;28;20510;-50
2022/03/14 01:23:50;;;;;;;7.77;6.03;;;;;;;;;;5070913;28;20524;-49
2022/03/14 01:26:17;;;;;;;8.80;6.63;;;;;;;;;;5071087;28;20434;-49
2022/03/14 01:28:43;;;;;;;8.00;6.20;;;;;;;;;;5071304;28;20434;-49
2022/03/14 01:31:10;;;;;;;9.47;6.10;;;;;;;;;;5070904;28;20430;-50
2022/03/14 01:33:37;;;;;;;6.90;5.77;;;;;;;;;;5071031;28;20438;-51
2022/03/14 01:36:03;;;;;;;8.27;6.57;;;;;;;;;;5070944;28;20445;-50
2022/03/14 01:38:29;;;;;;;9.40;6.13;;;;;;;;;;5071251;28;20445;-50
2022/03/14 01:40:55;;;;;;;8.87;6.07;;;;;;;;;;5070989;28;20422;-50
2022/03/14 01:43:24;;;;;;;9.47;6.63;;;;;;;;;;5070924;28;20442;-50
2022/03/14 01:45:50;;;;;;;12.27;7.90;;;;;;;;;;5070867;28;20776;-50
2022/03/14 01:48:16;;;;;;;10.73;7.13;;;;;;;;;;5070628;28;20426;-50
2022/03/14 01:50:44;;;;;;;9.47;6.73;;;;;;;;;;5071120;28;20966;-50
2022/03/14 01:53:10;;;;;;;8.83;6.57;;;;;;;;;;5071248;28;20207;-50
2022/03/14 01:55:36;;;;;;;9.13;6.20;;;;;;;;;;5071423;28;20470;-50
2022/03/14 01:58:03;;;;;;;8.67;6.60;;;;;;;;;;5071209;28;20474;-50
2022/03/14 02:00:29;;;;;;;13.73;6.63;;;;;;;;;;5072795;28;20445;-50
2022/03/14 02:02:55;;;;;;;7.53;6.47;;;;;;;;;;5075201;28;20491;-50
2022/03/14 02:05:22;;;;;;;8.23;6.33;;;;;;;;;;5074857;28;20445;-51
2022/03/14 02:07:49;;;;;;;8.37;6.73;;;;;;;;;;5075184;28;20430;-50
2022/03/14 02:10:16;;;;;;;7.27;5.90;;;;;;;;;;5075103;28;20445;-50
2022/03/14 02:12:43;;;;;;;10.80;6.80;;;;;;;;;;5075141;28;20450;-50
2022/03/14 02:15:09;;;;;;;10.20;6.70;;;;;;;;;;5074622;28;20810;-51
2022/03/14 02:17:35;;;;;;;7.67;5.97;;;;;;;;;;5074944;28;20437;-50
2022/03/14 02:20:05;;;;;;;7.13;5.87;;;;;;;;;;5074956;28;20436;-50
2022/03/14 02:22:32;;;;;;;9.87;6.30;;;;;;;;;;5074885;28;20669;-51
2022/03/14 02:24:57;;;;;;;7.67;6.13;;;;;;;;;;5074641;28;20572;-50
2022/03/14 02:27:25;;;;;;;8.10;5.90;;;;;;;;;;5074735;28;21011;-50
2022/03/14 02:29:51;;;;;;;8.90;6.70;;;;;;;;;;5074732;28;20199;-51
2022/03/14 02:32:18;;;;;;;8.67;6.20;;;;;;;;;;5074512;28;20468;-50
2022/03/14 02:34:44;;;;;;;7.73;6.33;;;;;;;;;;5074761;28;20233;-49
2022/03/14 02:37:11;;;;;;;8.00;5.90;;;;;;;;;;5074528;28;20434;-50
2022/03/14 02:39:38;;;;;;;9.30;6.40;;;;;;;;;;5074700;28;20445;-49
2022/03/14 02:42:04;;;;;;;9.03;6.83;;;;;;;;;;5074391;28;20465;-50
2022/03/14 02:44:31;;;;;;;8.17;6.03;;;;;;;;;;5074621;28;20438;-50
2022/03/14 02:46:57;;;;;;;10.07;5.93;;;;;;;;;;5074428;28;20530;-49
2022/03/14 02:49:23;;;;;;;8.60;6.10;;;;;;;;;;5074322;28;20516;-50
2022/03/14 02:51:51;;;;;;;9.20;6.70;;;;;;;;;;5074386;28;20196;-50
2022/03/14 02:54:18;;;;;;;8.20;6.43;;;;;;;;;;5074217;28;20527;-50
2022/03/14 02:56:44;;;;;;;8.77;6.33;;;;;;;;;;5074285;28;20441;-50
2022/03/14 02:59:11;;;;;;;11.03;6.80;;;;;;;;;;5074141;28;20433;-50
2022/03/14 03:01:37;;;;;;;7.60;6.50;;;;;;;;;;5074323;28;20434;-50
2022/03/14 03:04:06;;;;;;;8.93;6.80;;;;;;;;;;5074333;28;20434;-50
2022/03/14 03:06:33;;;;;;;8.13;6.73;;;;;;;;;;5074160;28;20442;-51
2022/03/14 03:08:59;;;;;;;8.80;6.87;;;;;;;;;;5074076;28;20438;-50
2022/03/14 03:11:28;;;;;;;8.63;6.90;;;;;;;;;;5073475;28;20430;-50
2022/03/14 03:13:56;;;;;;;7.27;6.40;;;;;;;;;;5073797;28;20829;-50
2022/03/14 03:16:22;;;;;;;8.50;7.03;;;;;;;;;;5073816;28;20878;-50
2022/03/14 03:18:48;;;;;;;9.83;6.60;;;;;;;;;;5073832;28;20499;-50
2022/03/14 03:21:16;;;;;;;9.30;6.43;;;;;;;;;;5073787;28;20994;-50
2022/03/14 03:23:42;;;;;;;7.87;6.30;;;;;;;;;;5073576;28;20477;-51
2022/03/14 03:26:08;;;;;;;8.47;6.20;;;;;;;;;;5073726;28;20442;-51
2022/03/14 03:28:36;;;;;;;8.77;6.53;;;;;;;;;;5073632;28;20438;-50
2022/03/14 03:31:04;;;;;;;9.33;6.60;;;;;;;;;;5073587;28;20829;-50
2022/03/14 03:33:30;;;;;;;8.33;6.80;;;;;;;;;;5073592;28;20437;-50
2022/03/14 03:35:56;;;;;;;7.97;6.40;;;;;;;;;;5073494;28;20484;-50
2022/03/14 03:38:22;;;;;;;9.93;6.80;;;;;;;;;;5073367;28;20441;-50
2022/03/14 03:40:48;;;;;;;12.27;6.73;;;;;;;;;;5073471;28;20491;-50
2022/03/14 03:43:14;;;;;;;7.37;6.53;;;;;;;;;;5073234;28;20236;-50
2022/03/14 03:45:44;;;;;;;8.07;6.97;;;;;;;;;;5071635;28;20191;-50
2022/03/14 03:48:10;;;;;;;8.83;6.43;;;;;;;;;;5073154;28;20450;-50
2022/03/14 03:50:36;;;;;;;9.00;6.83;;;;;;;;;;5073225;28;20445;-50
2022/03/14 03:53:02;;;;;;;8.13;6.80;;;;;;;;;;5073297;28;20440;-50
2022/03/14 03:55:28;;;;;;;7.93;6.77;;;;;;;;;;5073034;28;20478;-51
2022/03/14 03:57:54;;;;;;;8.93;6.87;;;;;;;;;;5073063;28;20204;-51
2022/03/14 04:00:20;;;;;;;13.40;7.10;;;;;;;;;;5072892;28;20196;-50
2022/03/14 04:02:47;;;;;;;10.10;6.53;;;;;;;;;;5072983;28;20278;-50
2022/03/14 04:05:19;;;;;;;14.90;6.97;;;;;;;;;;5072996;28;20199;-50
2022/03/14 04:07:46;;;;;;;10.03;7.23;;;;;;;;;;5072904;28;20450;-51
2022/03/14 04:10:15;;;;;;;9.77;7.03;;;;;;;;;;5072798;28;20464;-50
2022/03/14 04:12:43;;;;;;;7.47;6.70;;;;;;;;;;5072865;28;20567;-50
2022/03/14 04:15:10;;;;;;;13.03;7.60;;;;;;;;;;5072556;28;20469;-50
2022/03/14 04:17:37;;;;;;;10.00;7.23;;;;;;;;;;5072683;28;20445;-50
2022/03/14 04:20:05;;;;;;;8.90;6.47;;;;;;;;;;5072549;28;20952;-50
2022/03/14 04:22:32;;;;;;;9.07;7.30;;;;;;;;;;5072365;28;20442;-50
2022/03/14 04:24:59;;;;;;;8.53;6.90;;;;;;;;;;5072459;28;20497;-50
2022/03/14 04:27:25;;;;;;;10.60;7.30;;;;;;;;;;5072421;28;20453;-51
2022/03/14 04:29:51;;;;;;;10.40;7.43;;;;;;;;;;5072419;28;20465;-50
2022/03/14 04:32:17;;;;;;;10.63;7.30;;;;;;;;;;5072241;28;20779;-49
2022/03/14 04:34:44;;;;;;;8.67;6.93;;;;;;;;;;5072551;28;20483;-50
2022/03/14 04:37:12;;;;;;;9.40;6.90;;;;;;;;;;5072214;28;20430;-50
2022/03/14 04:39:40;;;;;;;8.90;7.03;;;;;;;;;;5072300;28;20476;-50
2022/03/14 04:42:06;;;;;;;7.90;6.93;;;;;;;;;;5072194;28;20448;-49
2022/03/14 04:44:34;;;;;;;7.77;6.37;;;;;;;;;;5072263;28;20434;-50
2022/03/14 04:47:00;;;;;;;8.73;6.70;;;;;;;;;;5072076;28;20489;-50
2022/03/14 04:49:27;;;;;;;9.57;7.23;;;;;;;;;;5072243;28;20461;-50
2022/03/14 04:51:55;;;;;;;8.70;6.73;;;;;;;;;;5072200;28;20508;-50
2022/03/14 04:54:22;;;;;;;8.53;6.63;;;;;;;;;;5071864;28;20461;-50
2022/03/14 04:56:48;;;;;;;8.33;7.00;;;;;;;;;;5071789;28;20797;-50
2022/03/14 04:59:14;;;;;;;9.40;6.77;;;;;;;;;;5072033;28;20438;-50
2022/03/14 05:01:40;;;;;;;8.67;7.13;;;;;;;;;;5071888;28;20195;-50
2022/03/14 05:04:07;;;;;;;10.13;7.33;;;;;;;;;;5071909;28;20445;-50
2022/03/14 05:06:33;;;;;;;11.13;7.27;;;;;;;;;;5072022;28;20433;-50
2022/03/14 05:08:59;;;;;;;8.90;7.00;;;;;;;;;;5072052;28;20430;-50
2022/03/14 05:11:26;;;;;;;8.27;6.97;;;;;;;;;;5071830;28;20515;-51
2022/03/14 05:13:55;;;;;;;7.83;7.03;;;;;;;;;;5071523;28;20458;-49
2022/03/14 05:16:21;;;;;;;8.37;6.97;;;;;;;;;;5071483;28;20434;-49
2022/03/14 05:18:47;;;;;;;7.97;6.80;;;;;;;;;;5071741;28;20812;-50
2022/03/14 05:21:13;;;;;;;8.43;7.03;;;;;;;;;;5071875;28;20499;-50
2022/03/14 05:23:40;;;;;;;8.07;6.90;;;;;;;;;;5071512;28;20480;-50
2022/03/14 05:26:06;;;;;;;8.23;6.77;;;;;;;;;;5071725;28;20830;-50
2022/03/14 05:28:34;;;;;;;8.40;6.73;;;;;;;;;;5071749;28;20438;-49
2022/03/14 05:31:00;;;;;;;12.67;7.27;;;;;;;;;;5071650;28;20438;-50
2022/03/14 05:33:26;;;;;;;7.77;6.97;;;;;;;;;;5071663;28;20487;-50
2022/03/14 05:35:54;;;;;;;9.07;6.70;;;;;;;;;;5073485;28;20470;-50
2022/03/14 05:38:22;;;;;;;8.73;7.57;;;;;;;;;;5075597;28;20199;-50
2022/03/14 05:40:49;;;;;;;9.23;6.93;;;;;;;;;;5075692;28;20429;-50
2022/03/14 05:43:15;;;;;;;12.47;7.67;;;;;;;;;;5075913;28;20430;-50
2022/03/14 05:45:43;;;;;;;11.90;8.33;;;;;;;;;;5075625;28;20438;-50
2022/03/14 05:48:09;;;;;;;10.07;7.53;;;;;;;;;;5075462;28;20238;-50
2022/03/14 05:50:35;;;;;;;10.07;7.80;;;;;;;;;;5075587;28;20438;-50
2022/03/14 05:53:01;;;;;;;10.80;7.60;;;;;;;;;;5075543;28;20873;-50
2022/03/14 05:55:27;;;;;;;9.77;7.33;;;;;;;;;;5075378;28;20306;-50
2022/03/14 05:57:53;;;;;;;8.47;7.37;;;;;;;;;;5075636;28;20849;-50
2022/03/14 06:00:24;;;;;;;11.83;7.50;;;;;;;;;;5075443;28;20499;-50
2022/03/14 06:02:52;;;;;;;12.33;7.27;;;;;;;;;;5075298;28;20433;-50
2022/03/14 06:05:18;;;;;;;8.97;7.50;;;;;;;;;;5074991;28;20438;-50
2022/03/14 06:07:44;;;;;;;10.03;7.77;;;;;;;;;;5074995;28;20429;-50
2022/03/14 06:10:13;;;;;;;9.33;7.90;;;;;;;;;;5074825;28;20464;-50
2022/03/14 06:12:40;;;;;;;11.33;7.57;;;;;;;;;;5074777;28;20662;-48
2022/03/14 06:15:12;;;;;;;8.90;7.73;;;;;;;;;;5074388;28;20843;-50
2022/03/14 06:17:40;;;;;;;14.03;7.70;;;;;;;;;;5074664;28;20478;-50
2022/03/14 06:20:09;;;;;;;10.80;7.77;;;;;;;;;;5074767;28;20915;-50
2022/03/14 06:22:38;;;;;;;9.70;7.80;;;;;;;;;;5075002;28;20908;-51
2022/03/14 06:25:05;;;;;;;10.70;8.10;;;;;;;;;;5074449;28;20928;-48
2022/03/14 06:27:31;;;;;;;12.67;8.20;;;;;;;;;;5074818;28;20549;-51
2022/03/14 06:29:57;;;;;;;8.20;7.30;;;;;;;;;;5074113;28;20508;-48
2022/03/14 06:32:23;;;;;;;8.47;6.83;;;;;;;;;;5074449;28;20214;-49
2022/03/14 06:34:48;;;;;;;9.93;7.67;;;;;;;;;;5074535;28;20224;-48
2022/03/14 06:37:16;;;;;;;10.80;8.97;;;;;;;;;;5074735;28;20529;-49
2022/03/14 06:39:42;;;;;;;9.33;7.43;;;;;;;;;;5074531;28;20206;-49
2022/03/14 06:42:09;;;;;;;9.67;7.73;;;;;;;;;;5074206;28;20861;-49
2022/03/14 06:44:38;;;;;;;9.50;7.93;;;;;;;;;;5074004;28;20601;-49
2022/03/14 06:47:05;;;;;;;11.47;8.23;;;;;;;;;;5073216;28;20422;-49
2022/03/14 06:49:31;;;;;;;11.67;7.97;;;;;;;;;;5074412;28;20445;-49
2022/03/14 06:51:57;;;;;;;11.03;8.00;;;;;;;;;;5074405;28;20484;-49
2022/03/14 06:54:25;;;;;;;10.37;8.20;;;;;;;;;;5073892;28;20818;-49
2022/03/14 06:56:51;;;;;;;9.33;8.30;;;;;;;;;;5074125;28;20684;-49
2022/03/14 06:59:17;;;;;;;10.90;8.47;;;;;;;;;;5073980;28;20437;-49
2022/03/14 07:01:43;;;;;;;10.03;8.17;;;;;;;;;;5074148;28;20196;-49
2022/03/14 07:04:09;;;;;;;16.90;11.60;;;;;;;;;;5074112;28;20442;-50
2022/03/14 07:06:36;;;;;;;11.83;9.53;;;;;;;;;;5073838;28;20524;-50
2022/03/14 07:09:02;;;;;;;11.73;8.63;;;;;;;;;;5073774;28;20805;-49
2022/03/14 07:11:29;;;;;;;12.57;8.87;;;;;;;;;;5073568;28;20445;-49
2022/03/14 07:13:55;;;;;;;13.73;9.20;;;;;;;;;;5073699;28;20529;-49
2022/03/14 07:16:22;;;;;;;10.83;9.10;;;;;;;;;;5073402;28;20561;-49
2022/03/14 07:18:48;;;;;;;11.40;10.17;;;;;;;;;;5073741;28;20200;-49
2022/03/14 07:21:14;;;;;;;10.40;8.57;;;;;;;;;;5073696;28;20430;-49
2022/03/14 07:23:40;;;;;;;10.83;9.37;;;;;;;;;;5073596;28;20972;-49
2022/03/14 07:26:06;;;;;;;15.37;9.83;;;;;;;;;;5073591;28;20438;-49
2022/03/14 07:28:33;;;;;;;11.40;9.77;;;;;;;;;;5073510;28;20436;-49
2022/03/14 07:30:59;;;;;;;10.47;9.47;;;;;;;;;;5073327;28;20200;-49
2022/03/14 07:33:25;;;;;;;13.03;10.23;;;;;;;;;;5073325;28;20536;-49
2022/03/14 07:35:51;;;;;;;11.87;10.47;;;;;;;;;;5073256;28;20473;-49
2022/03/14 07:38:17;;;;;;;13.10;11.13;;;;;;;;;;5073340;28;20991;-49
2022/03/14 07:40:44;;;;;;;12.20;10.40;;;;;;;;;;5073421;28;20298;-49
2022/03/14 07:43:11;;;;;;;16.30;10.67;;;;;;;;;;5073212;28;20719;-49
2022/03/14 07:45:38;;;;;;;13.97;10.47;;;;;;;;;;5073083;28;20433;-49
2022/03/14 07:48:05;;;;;;;15.23;10.17;;;;;;;;;;5073082;28;20437;-49
2022/03/14 07:50:31;;;;;;;13.07;10.47;;;;;;;;;;5073304;28;20449;-49
2022/03/14 07:52:58;;;;;;;15.53;10.73;;;;;;;;;;5073248;28;20430;-49
2022/03/14 07:55:25;;;;;;;15.00;10.40;;;;;;;;;;5072792;28;20477;-49
2022/03/14 07:57:51;;;;;;;12.20;10.53;;;;;;;;;;5071989;28;20438;-49
2022/03/14 08:00:19;;;;;;;13.30;10.80;;;;;;;;;;5072675;28;20470;-49
2022/03/14 08:02:47;;;;;;;18.53;13.00;;;;;;;;;;5072874;28;20426;-48
2022/03/14 08:05:15;;;;;;;13.47;11.37;;;;;;;;;;5072590;28;20442;-49
2022/03/14 08:07:45;;;;;;;12.47;10.43;;;;;;;;;;5072695;28;20441;-51
2022/03/14 08:10:12;;;;;;;16.77;12.97;;;;;;;;;;5072729;28;20426;-51
2022/03/14 08:12:48;;;;;;;22.97;12.33;;;;;;;;;;5072479;28;20425;-49
2022/03/14 08:15:19;;;;;;;15.00;11.97;;;;;;;;;;5072624;28;20508;-55
2022/03/14 08:17:46;;;;;;;15.20;12.07;;;;;;;;;;5072561;28;20430;-48
2022/03/14 08:20:12;;;;;;;14.00;11.73;;;;;;;;;;5072265;28;20472;-49
2022/03/14 08:22:38;;;;;;;12.70;11.37;;;;;;;;;;5072440;28;20445;-48
2022/03/14 08:25:05;;;;;;;15.77;12.50;;;;;;;;;;5072165;28;20477;-48
2022/03/14 08:27:31;;;;;;;14.40;12.20;;;;;;;;;;5072258;28;20838;-48
2022/03/14 08:29:57;;;;;;;13.90;11.83;;;;;;;;;;5072391;28;20864;-48
2022/03/14 08:32:24;;;;;;;14.53;12.20;;;;;;;;;;5072151;28;20950;-49
2022/03/14 08:34:56;;;;;;;16.03;12.10;;;;;;;;;;5072279;28;20557;-49
2022/03/14 08:37:22;;;;;;;17.13;13.43;;;;;;;;;;5072229;28;20433;-48
2022/03/14 08:39:48;;;;;;;15.70;13.00;;;;;;;;;;5072327;28;20434;-48
2022/03/14 08:42:14;;;;;;;13.87;12.47;;;;;;;;;;5072177;28;20430;-49
2022/03/14 08:44:40;;;;;;;16.17;13.13;;;;;;;;;;5072296;28;20436;-49
2022/03/14 08:47:07;;;;;;;16.00;12.90;;;;;;;;;;5072112;28;20426;-48
2022/03/14 08:49:34;;;;;;;16.93;13.27;;;;;;;;;;5072081;28;20518;-47
2022/03/14 08:52:01;;;;;;;14.30;12.57;;;;;;;;;;5072233;28;20199;-46
2022/03/14 08:54:27;;;;;;;15.70;14.10;;;;;;;;;;5071823;28;20497;-49
2022/03/14 08:56:54;;;;;;;15.17;12.97;;;;;;;;;;5071984;28;20231;-49
2022/03/14 08:59:20;;;;;;;17.27;13.50;;;;;;;;;;5071934;28;20601;-48
2022/03/14 09:01:46;;;;;;;15.50;13.10;;;;;;;;;;5071893;28;20283;-49
2022/03/14 09:04:12;;;;;;;14.77;13.17;;;;;;;;;;5071883;28;20191;-49
2022/03/14 09:06:38;;;;;;;14.50;12.63;;;;;;;;;;5072129;28;20204;-48
2022/03/14 09:09:06;;;;;;;15.60;13.93;;;;;;;;;;5071751;28;20199;-49
2022/03/14 09:11:32;;;;;;;15.33;13.57;;;;;;;;;;5072011;28;21054;-48
2022/03/14 09:13:57;;;;;;;14.53;13.10;;;;;;;;;;5072176;28;20287;-48
2022/03/14 09:16:23;;;;;;;15.80;12.93;;;;;;;;;;5071768;28;20265;-48
2022/03/14 09:18:50;;;;;;;14.67;13.07;;;;;;;;;;5071982;28;20208;-48
2022/03/14 09:21:16;;;;;;;14.90;13.40;;;;;;;;;;5070322;28;20406;-49
2022/03/14 09:23:42;;;;;;;13.63;12.23;;;;;;;;;;5071912;28;20609;-52
2022/03/14 09:26:10;;;;;;;14.20;12.80;;;;;;;;;;5071823;28;20192;-50
2022/03/14 09:28:36;;;;;;;13.70;12.30;;;;;;;;;;5071730;28;21023;-48
2022/03/14 09:31:02;;;;;;;15.40;12.67;;;;;;;;;;5071836;28;20603;-48
2022/03/14 09:33:28;;;;;;;14.30;12.73;;;;;;;;;;5071798;28;20225;-52
2022/03/14 09:35:54;;;;;;;14.23;12.27;;;;;;;;;;5071750;28;20223;-48
2022/03/14 09:38:21;;;;;;;14.77;12.67;;;;;;;;;;5071474;28;20564;-49
2022/03/14 09:40:48;;;;;;;14.10;12.60;;;;;;;;;;5071881;28;20211;-48
2022/03/14 09:43:18;;;;;;;15.10;12.53;;;;;;;;;;5071814;28;20200;-49
2022/03/14 09:45:46;;;;;;;14.50;13.00;;;;;;;;;;5071823;28;20207;-53
2022/03/14 09:48:14;;;;;;;13.80;11.93;;;;;;;;;;5071497;28;20195;-48
2022/03/14 09:50:40;;;;;;;14.90;13.30;;;;;;;;;;5069386;28;20282;-49
2022/03/14 09:53:07;;;;;;;14.60;12.83;;;;;;;;;;5066048;28;20887;-48
2022/03/14 09:55:40;;;;;;;14.00;12.50;;;;;;;;;;5070638;28;20225;-48
2022/03/14 09:58:07;;;;;;;14.23;12.83;;;;;;;;;;5051595;28;20208;-49
2022/03/14 10:00:34;;;;;;;14.57;12.60;;;;;;;;;;5060443;28;20200;-48
2022/03/14 10:03:02;;;;;;;14.13;12.47;;;;;;;;;;5071224;28;20554;-47
2022/03/14 10:05:28;;;;;;;14.87;12.10;;;;;;;;;;5071355;28;20199;-48
2022/03/14 10:07:54;;;;;;;13.80;12.40;;;;;;;;;;5071399;28;20204;-48
2022/03/14 10:10:20;;;;;;;15.03;12.40;;;;;;;;;;5071202;28;20198;-47
2022/03/14 10:12:52;;;;;;;13.97;12.40;;;;;;;;;;5071558;28;20229;-49
2022/03/14 10:15:19;;;;;;;14.23;11.60;;;;;;;;;;5070993;28;20231;-49
2022/03/14 10:17:46;;;;;;;13.27;11.13;;;;;;;;;;5071558;28;20291;-48
2022/03/14 10:20:15;;;;;;;13.27;11.57;;;;;;;;;;5071363;28;20294;-48
2022/03/14 10:22:41;;;;;;;11.83;10.63;;;;;;;;;;5074149;28;20245;-48
2022/03/14 10:25:11;;;;;;;14.17;10.60;;;;;;;;;;5074622;28;20235;-48
2022/03/14 10:27:37;;;;;;;10.67;9.63;;;;;;;;;;5074819;28;20290;-48
2022/03/14 10:30:04;;;;;;;10.60;9.50;;;;;;;;;;5074837;28;20200;-48
2022/03/14 10:32:30;;;;;;;9.23;8.33;;;;;;;;;;5074653;28;20625;-48
2022/03/14 10:35:01;;;;;;;9.43;8.43;;;;;;;;;;5074314;28;20588;-48
2022/03/14 10:37:29;;;;;;;9.60;8.67;;;;;;;;;;5074353;28;20238;-48
2022/03/14 10:39:59;;;;;;;9.07;8.10;;;;;;;;;;5074690;28;20666;-48
2022/03/14 10:42:25;;;;;;;8.23;7.43;;;;;;;;;;5074485;28;20195;-48
2022/03/14 10:44:52;;;;;;;7.40;6.50;;;;;;;;;;5074710;28;20199;-48
2022/03/14 10:47:19;;;;;;;7.10;6.40;;;;;;;;;;5074319;28;20202;-48
2022/03/14 10:49:46;;;;;;;6.77;6.17;;;;;;;;;;5072926;28;20279;-47
2022/03/14 10:52:14;;;;;;;6.50;5.90;;;;;;;;;;5074544;28;20241;-47
2022/03/14 10:54:40;;;;;;;6.47;5.87;;;;;;;;;;5074368;28;20203;-48
2022/03/14 10:57:08;;;;;;;6.23;5.53;;;;;;;;;;5074550;28;20209;-48
2022/03/14 10:59:34;;;;;;;5.30;4.70;;;;;;;;;;5074185;28;20238;-48
2022/03/14 11:02:01;;;;;;;6.97;6.03;;;;;;;;;;5074213;28;20650;-48
2022/03/14 11:04:27;;;;;;;6.30;5.27;;;;;;;;;;5074321;28;20571;-48
2022/03/14 11:06:58;;;;;;;5.93;5.30;;;;;;;;;;5074329;28;20187;-48
2022/03/14 11:09:37;;;;;;;4.77;4.37;;;;;;;;;;5073931;28;20191;-47
2022/03/14 11:12:05;;;;;;;5.97;4.80;;;;;;;;;;5074273;28;20212;-48
2022/03/14 11:14:31;;;;;;;5.90;4.80;;;;;;;;;;5074068;28;20195;-47
2022/03/14 11:17:08;;;;;;;4.93;4.43;;;;;;;;;;5073823;28;20215;-49
2022/03/14 11:19:34;;;;;;;5.80;5.20;;;;;;;;;;5074062;28;20206;-48
2022/03/14 11:22:00;;;;;;;5.53;5.03;;;;;;;;;;5074085;28;20661;-48
2022/03/14 11:24:26;;;;;;;5.27;4.77;;;;;;;;;;5073322;28;20227;-48
2022/03/14 11:26:54;;;;;;;5.90;5.00;;;;;;;;;;5074011;28;20204;-47
2022/03/14 11:29:20;;;;;;;5.33;4.83;;;;;;;;;;5071955;28;20196;-47
2022/03/14 11:31:48;;;;;;;6.10;5.50;;;;;;;;;;5073634;28;20718;-49
2022/03/14 11:34:15;;;;;;;6.77;5.90;;;;;;;;;;5073574;28;20206;-48
2022/03/14 11:36:41;;;;;;;5.73;5.17;;;;;;;;;;5073614;28;20306;-48
2022/03/14 11:39:07;;;;;;;6.20;5.60;;;;;;;;;;5073767;28;20233;-48
2022/03/14 11:41:33;;;;;;;6.90;5.70;;;;;;;;;;5073480;28;20693;-48
2022/03/14 11:44:01;;;;;;;5.70;5.20;;;;;;;;;;5073636;28;20291;-48
2022/03/14 11:46:27;;;;;;;6.03;5.47;;;;;;;;;;5073271;28;20369;-49
2022/03/14 11:49:08;;;;;;;6.07;5.47;;;;;;;;;;5073624;28;20196;-49
2022/03/14 11:51:37;;;;;;;6.13;5.53;;;;;;;;;;5073436;28;20215;-49
2022/03/14 11:54:09;;;;;;;6.27;5.67;;;;;;;;;;5073287;28;20210;-48
2022/03/14 11:56:38;;;;;;;6.90;6.30;;;;;;;;;;5073244;28;20269;-48
2022/03/14 11:59:07;;;;;;;6.10;5.50;;;;;;;;;;5073307;28;20210;-48
2022/03/14 12:01:34;;;;;;;7.03;6.33;;;;;;;;;;5073254;28;20200;-48
2022/03/14 12:04:02;;;;;;;7.20;6.27;;;;;;;;;;5073461;28;20202;-48
2022/03/14 12:06:47;;;;;;;6.77;6.17;;;;;;;;;;5073103;28;20590;-48
2022/03/14 12:09:34;;;;;;;6.40;5.83;;;;;;;;;;5072886;28;20191;-47
2022/03/14 12:12:20;;;;;;;6.27;5.67;;;;;;;;;;5072885;28;20237;-51
2022/03/14 12:14:57;;;;;;;6.27;5.67;;;;;;;;;;5072781;28;20262;-48
2022/03/14 12:17:24;;;;;;;8.10;6.43;;;;;;;;;;5072796;28;20604;-47
2022/03/14 12:19:50;;;;;;;7.10;6.40;;;;;;;;;;5072696;28;20286;-47
2022/03/14 12:22:33;;;;;;;7.40;6.57;;;;;;;;;;5072682;28;20280;-47
2022/03/14 12:25:00;;;;;;;7.40;6.70;;;;;;;;;;5072677;28;20322;-48
2022/03/14 12:27:29;;;;;;;7.13;6.43;;;;;;;;;;5072699;28;20204;-48
2022/03/14 12:29:57;;;;;;;7.20;6.60;;;;;;;;;;5072575;28;20283;-49
2022/03/14 12:32:28;;;;;;;7.77;7.07;;;;;;;;;;5072386;28;20208;-49
2022/03/14 12:35:02;;;;;;;8.10;7.40;;;;;;;;;;5072576;28;20219;-48
2022/03/14 12:37:43;;;;;;;8.37;7.50;;;;;;;;;;5072373;28;20203;-48
2022/03/14 12:40:12;;;;;;;8.53;7.57;;;;;;;;;;5070048;28;20234;-48
2022/03/14 12:42:39;;;;;;;8.03;7.23;;;;;;;;;;5072362;28;20238;-48
2022/03/14 12:45:17;;;;;;;10.93;8.00;;;;;;;;;;5071975;28;20219;-49
2022/03/14 12:47:43;;;;;;;9.50;7.77;;;;;;;;;;5072361;28;20566;-48
2022/03/14 12:50:12;;;;;;;8.33;7.53;;;;;;;;;;5072421;28;20192;-47
2022/03/14 12:52:53;;;;;;;8.80;7.90;;;;;;;;;;5072424;28;20207;-48
2022/03/14 12:55:19;;;;;;;9.80;8.63;;;;;;;;;;5072099;28;20262;-48
2022/03/14 12:57:51;;;;;;;8.80;8.00;;;;;;;;;;5072424;28;20228;-48
2022/03/14 13:00:19;;;;;;;9.87;8.53;;;;;;;;;;5072227;28;20353;-48
2022/03/14 13:02:45;;;;;;;8.93;8.07;;;;;;;;;;5072265;28;20199;-48
2022/03/14 13:05:11;;;;;;;10.43;8.50;;;;;;;;;;5068023;28;20192;-47
2022/03/14 13:07:37;;;;;;;9.40;8.40;;;;;;;;;;5071427;28;20199;-48
2022/03/14 13:10:03;;;;;;;9.47;8.60;;;;;;;;;;5071989;28;20206;-47
2022/03/14 13:12:29;;;;;;;9.00;7.97;;;;;;;;;;5071854;28;20195;-47
2022/03/14 13:15:02;;;;;;;9.40;8.60;;;;;;;;;;5069968;28;20713;-48
2022/03/14 13:17:29;;;;;;;9.37;8.37;;;;;;;;;;5071976;28;20199;-48
2022/03/14 13:19:55;;;;;;;10.37;9.37;;;;;;;;;;5071868;28;20761;-48
2022/03/14 13:22:22;;;;;;;10.00;9.10;;;;;;;;;;5071813;28;20279;-48
2022/03/14 13:24:49;;;;;;;9.30;8.30;;;;;;;;;;5071715;28;20251;-48
2022/03/14 13:27:20;;;;;;;9.17;8.37;;;;;;;;;;5071854;28;20275;-48
2022/03/14 13:29:46;;;;;;;9.77;8.87;;;;;;;;;;5072048;28;20203;-48
2022/03/14 13:32:16;;;;;;;11.50;9.63;;;;;;;;;;5071982;28;20195;-49
2022/03/14 13:34:44;;;;;;;11.57;10.37;;;;;;;;;;5071803;28;20561;-48
2022/03/14 13:37:10;;;;;;;11.27;10.17;;;;;;;;;;5071873;28;20195;-49
2022/03/14 13:39:36;;;;;;;11.80;10.73;;;;;;;;;;5071455;28;20286;-50
2022/03/14 13:42:05;;;;;;;11.70;10.50;;;;;;;;;;5071790;28;20191;-48
2022/03/14 13:44:31;;;;;;;11.47;10.47;;;;;;;;;;5071480;28;20207;-48
2022/03/14 13:46:58;;;;;;;11.50;10.30;;;;;;;;;;5071731;28;20745;-49
2022/03/14 13:49:24;;;;;;;12.47;10.47;;;;;;;;;;5071621;28;20231;-49
2022/03/14 13:51:53;;;;;;;11.57;10.37;;;;;;;;;;5071697;28;20211;-50
2022/03/14 13:54:22;;;;;;;11.80;10.70;;;;;;;;;;5071561;28;20203;-50
2022/03/14 13:56:48;;;;;;;12.67;10.73;;;;;;;;;;5073297;28;20716;-49
2022/03/14 13:59:26;;;;;;;12.03;10.83;;;;;;;;;;5075574;28;20203;-49
2022/03/14 14:01:53;;;;;;;12.10;10.93;;;;;;;;;;5075634;28;20206;-50
2022/03/14 14:04:24;;;;;;;11.73;10.63;;;;;;;;;;5075322;28;20661;-48
2022/03/14 14:06:51;;;;;;;12.00;10.80;;;;;;;;;;5075374;28;20192;-50
2022/03/14 14:09:19;;;;;;;11.30;10.10;;;;;;;;;;5073656;28;20249;-50
2022/03/14 14:11:55;;;;;;;11.33;10.27;;;;;;;;;;5075396;28;20200;-49
2022/03/14 14:14:24;;;;;;;10.77;9.67;;;;;;;;;;5075188;28;20199;-47
2022/03/14 14:16:50;;;;;;;10.73;9.73;;;;;;;;;;5075205;28;20314;-48
2022/03/14 14:19:17;;;;;;;11.63;9.87;;;;;;;;;;5075246;28;20241;-48
2022/03/14 14:21:53;;;;;;;9.63;8.63;;;;;;;;;;5075011;28;20196;-48
2022/03/14 14:24:23;;;;;;;9.00;8.07;;;;;;;;;;5074678;28;20647;-48
2022/03/14 14:26:49;;;;;;;9.10;8.07;;;;;;;;;;5075147;28;20543;-48
2022/03/14 14:29:30;;;;;;;9.23;8.33;;;;;;;;;;5074990;28;20256;-49
2022/03/14 14:32:11;;;;;;;9.70;7.40;;;;;;;;;;5074917;28;20223;-48
2022/03/14 14:34:37;;;;;;;9.97;7.30;;;;;;;;;;5074679;28;20210;-48